Time;durP1;ratioP1;P1;durP2;ratioP2;P2;SDS_P1;SDS_P2;PMS_P1;PMS_P2;Temp;Humidity;BMP_temperature;BMP_pressure;BME280_temperature;BME280_humidity;BME280_pressure;Samples;Min_cycle;Max_cycle;Signal;HPM_P1;HPM_P2
2023/10/29 00:01:17;;;;;;;4.93;1.80;;;;;;;12.84;100.00;99063.63;5013225;28;20530;-65
2023/10/29 00:03:42;;;;;;;4.70;1.70;;;;;;;12.87;100.00;99060.88;5013007;28;20034;-66
2023/10/29 00:06:10;;;;;;;2.53;1.63;;;;;;;12.89;100.00;99059.09;5012751;28;20044;-66
2023/10/29 00:08:36;;;;;;;3.58;1.98;;;;;;;12.93;100.00;99042.19;5013085;28;20030;-66
2023/10/29 00:11:01;;;;;;;5.35;2.00;;;;;;;12.94;100.00;99037.75;5013173;28;20084;-66
2023/10/29 00:13:26;;;;;;;4.32;2.00;;;;;;;12.96;100.00;99050.03;5013031;28;20109;-65
2023/10/29 00:15:52;;;;;;;3.63;1.88;;;;;;;12.97;100.00;99030.53;5013063;28;20392;-66
2023/10/29 00:18:18;;;;;;;4.93;1.70;;;;;;;13.01;100.00;99026.91;5013071;28;20105;-65
2023/10/29 00:20:44;;;;;;;2.95;1.73;;;;;;;13.00;100.00;99019.00;5012855;28;20037;-66
2023/10/29 00:23:10;;;;;;;4.95;2.00;;;;;;;13.02;100.00;99015.41;5012868;28;20081;-66
2023/10/29 00:25:35;;;;;;;3.35;1.90;;;;;;;13.04;100.00;98997.66;5012894;28;20026;-65
2023/10/29 00:28:00;;;;;;;3.42;1.88;;;;;;;13.03;100.00;98977.38;5012940;28;20073;-65
2023/10/29 00:30:26;;;;;;;3.80;1.80;;;;;;;13.01;100.00;98963.25;5012989;28;20105;-65
2023/10/29 00:32:52;;;;;;;2.65;1.63;;;;;;;13.02;100.00;98967.69;5013168;28;20041;-66
2023/10/29 00:35:17;;;;;;;4.35;1.85;;;;;;;13.02;100.00;98970.34;5012841;28;20038;-65
2023/10/29 00:37:42;;;;;;;2.17;1.58;;;;;;;13.03;100.00;98957.94;5011518;28;20414;-65
2023/10/29 00:40:09;;;;;;;3.60;1.80;;;;;;;13.06;100.00;98956.97;5012960;28;20057;-66
2023/10/29 00:42:34;;;;;;;3.55;1.90;;;;;;;13.06;100.00;98954.31;5012704;28;20479;-67
2023/10/29 00:45:00;;;;;;;2.67;1.80;;;;;;;13.08;100.00;98968.41;5011471;28;20083;-66
2023/10/29 00:47:25;;;;;;;3.47;1.80;;;;;;;13.09;100.00;98976.31;5011547;28;20033;-63
2023/10/29 00:49:52;;;;;;;4.10;1.90;;;;;;;13.12;100.00;98993.91;5012673;28;20079;-66
2023/10/29 00:52:18;;;;;;;3.92;1.88;;;;;;;13.16;100.00;98987.63;5012744;28;20026;-65
2023/10/29 00:54:44;;;;;;;3.60;1.80;;;;;;;13.16;100.00;98980.53;5011596;28;20022;-66
2023/10/29 00:57:10;;;;;;;3.00;1.67;;;;;;;13.28;100.00;98968.72;5013206;28;20030;-66
2023/10/29 00:59:37;;;;;;;7.07;1.90;;;;;;;13.32;100.00;98977.44;5016485;28;20344;-65
2023/10/29 01:02:02;;;;;;;4.57;1.85;;;;;;;13.35;100.00;98972.91;5016398;28;20022;-64
2023/10/29 01:04:28;;;;;;;4.35;1.85;;;;;;;13.38;100.00;98964.84;5015920;28;20489;-65
2023/10/29 01:06:53;;;;;;;3.22;1.80;;;;;;;13.44;100.00;98969.97;5016000;28;20029;-65
2023/10/29 01:09:19;;;;;;;3.08;1.70;;;;;;;13.50;100.00;98953.88;5016263;28;20030;-65
2023/10/29 01:11:46;;;;;;;3.05;1.70;;;;;;;13.53;100.00;98960.84;5016018;28;20368;-65
2023/10/29 01:14:12;;;;;;;3.50;1.77;;;;;;;13.54;100.00;98962.59;5015904;28;20116;-66
2023/10/29 01:16:38;;;;;;;3.50;1.80;;;;;;;13.58;100.00;98952.78;5016228;28;20424;-66
2023/10/29 01:19:04;;;;;;;4.30;1.42;;;;;;;13.59;100.00;98939.44;5014768;28;20114;-64
2023/10/29 01:21:29;;;;;;;5.65;1.95;;;;;;;13.59;100.00;98951.84;5015894;28;20112;-65
2023/10/29 01:23:55;;;;;;;2.53;1.55;;;;;;;13.58;100.00;98920.94;5015810;28;20029;-65
2023/10/29 01:26:21;;;;;;;4.35;1.90;;;;;;;13.59;100.00;98931.47;5015636;28;20026;-64
2023/10/29 01:28:46;;;;;;;4.88;1.98;;;;;;;13.58;100.00;98936.84;5016064;28;20026;-65
2023/10/29 01:31:12;;;;;;;2.67;1.80;;;;;;;13.60;100.00;98958.88;5015895;28;20446;-65
2023/10/29 01:33:38;;;;;;;6.68;1.90;;;;;;;13.60;100.00;98954.44;5015668;28;20092;-64
2023/10/29 01:36:04;;;;;;;4.00;1.83;;;;;;;13.58;100.00;98950.13;5015311;28;20395;-66
2023/10/29 01:38:29;;;;;;;3.45;1.70;;;;;;;13.66;100.00;98948.06;5015354;28;20045;-66
2023/10/29 01:40:55;;;;;;;3.45;1.88;;;;;;;13.66;100.00;98927.72;5015478;28;20068;-66
2023/10/29 01:43:20;;;;;;;2.65;1.52;;;;;;;13.64;100.00;98923.38;5015655;28;20026;-65
2023/10/29 01:45:46;;;;;;;3.08;1.65;;;;;;;13.61;100.00;98920.81;5015394;28;20029;-65
2023/10/29 01:48:11;;;;;;;4.30;1.90;;;;;;;13.58;100.00;98913.81;5015637;28;20510;-66
2023/10/29 01:50:37;;;;;;;3.33;1.63;;;;;;;13.56;100.00;98906.81;5015456;28;20033;-66
2023/10/29 01:53:02;;;;;;;3.17;1.70;;;;;;;13.53;100.00;98906.00;5015303;28;20041;-65
2023/10/29 01:55:28;;;;;;;3.35;1.83;;;;;;;13.51;100.00;98901.66;5015234;28;20476;-64
2023/10/29 01:57:53;;;;;;;2.60;1.63;;;;;;;13.47;100.00;98919.47;5015513;28;20113;-65
2023/10/29 02:00:22;;;;;;;2.55;1.63;;;;;;;13.45;100.00;98910.69;5015185;28;20073;-64
2023/10/29 02:02:49;;;;;;;5.18;1.80;;;;;;;13.42;100.00;98913.44;5015401;28;20026;-66
2023/10/29 02:05:15;;;;;;;5.25;1.73;;;;;;;13.41;100.00;98911.72;5014603;28;20030;-65
2023/10/29 02:07:40;;;;;;;4.32;1.90;;;;;;;13.38;100.00;98916.25;5015127;28;20032;-65
2023/10/29 02:10:06;;;;;;;2.53;1.67;;;;;;;13.35;100.00;98919.84;5014209;28;20112;-66
2023/10/29 02:12:31;;;;;;;4.07;1.77;;;;;;;13.34;100.00;98934.03;5015124;28;20026;-66
2023/10/29 02:14:57;;;;;;;2.75;1.75;;;;;;;13.33;100.00;98926.13;5013611;28;20030;-66
2023/10/29 02:17:25;;;;;;;4.18;1.75;;;;;;;13.35;100.00;98913.69;5014742;28;20108;-64
2023/10/29 02:19:51;;;;;;;3.88;1.73;;;;;;;13.33;100.00;98918.19;5014954;28;20042;-66
2023/10/29 02:22:17;;;;;;;3.63;1.70;;;;;;;13.34;100.00;98927.88;5014535;28;20044;-66
2023/10/29 02:24:42;;;;;;;3.75;1.58;;;;;;;13.34;100.00;98917.25;5014717;28;20030;-66
2023/10/29 02:27:07;;;;;;;3.60;1.80;;;;;;;13.36;100.00;98911.00;5014622;28;20076;-65
2023/10/29 02:29:33;;;;;;;2.85;1.73;;;;;;;13.38;100.00;98930.38;5014646;28;20517;-66
2023/10/29 02:31:59;;;;;;;2.88;1.75;;;;;;;13.39;100.00;98904.72;5014463;28;20109;-65
2023/10/29 02:34:24;;;;;;;4.50;1.70;;;;;;;13.33;100.00;98918.19;5014858;28;20118;-66
2023/10/29 02:36:50;;;;;;;3.67;1.70;;;;;;;13.38;100.00;98926.84;5014127;28;20026;-66
2023/10/29 02:39:15;;;;;;;2.83;1.80;;;;;;;13.35;100.00;98918.97;5014310;28;20053;-65
2023/10/29 02:41:40;;;;;;;3.05;1.80;;;;;;;13.33;100.00;98924.34;5014468;28;20470;-68
2023/10/29 02:44:06;;;;;;;4.07;1.80;;;;;;;13.36;100.00;98923.38;5014455;28;20068;-66
2023/10/29 02:46:31;;;;;;;3.67;1.90;;;;;;;13.35;100.00;98906.59;5014104;28;20109;-65
2023/10/29 02:48:56;;;;;;;3.38;1.95;;;;;;;13.35;100.00;98914.53;5014218;28;20030;-65
2023/10/29 02:51:22;;;;;;;7.72;1.73;;;;;;;13.37;100.00;98902.13;5014081;28;20033;-65
2023/10/29 02:53:47;;;;;;;3.33;1.85;;;;;;;13.44;100.00;98918.69;5014194;28;20084;-65
2023/10/29 02:56:13;;;;;;;2.88;1.80;;;;;;;13.45;100.00;98917.78;5014005;28;20539;-64
2023/10/29 02:58:38;;;;;;;2.67;1.52;;;;;;;13.51;100.00;98912.28;5014129;28;20105;-65
2023/10/29 03:01:05;;;;;;;4.57;1.67;;;;;;;13.56;100.00;98920.94;5014047;28;20077;-64
2023/10/29 03:03:31;;;;;;;3.22;1.60;;;;;;;13.59;100.00;98918.22;5013914;28;20026;-65
2023/10/29 03:05:56;;;;;;;6.15;1.67;;;;;;;13.62;100.00;98912.81;5012169;28;20029;-64
2023/10/29 03:08:22;;;;;;;3.58;1.52;;;;;;;13.64;100.00;98910.97;5013864;28;20456;-65
2023/10/29 03:10:49;;;;;;;3.47;1.65;;;;;;;13.72;100.00;98905.41;5013798;28;20033;-65
2023/10/29 03:13:15;;;;;;;4.70;1.52;;;;;;;13.72;100.00;98894.78;5013733;28;20026;-66
2023/10/29 03:15:40;;;;;;;3.90;1.90;;;;;;;13.71;100.00;98903.69;5014070;28;20053;-64
2023/10/29 03:18:05;;;;;;;3.15;1.38;;;;;;;13.74;100.00;98920.34;5013737;28;20483;-65
2023/10/29 03:20:31;;;;;;;2.47;1.42;;;;;;;13.74;100.00;98909.72;5013528;28;20084;-66
2023/10/29 03:22:56;;;;;;;4.80;1.75;;;;;;;13.78;100.00;98910.50;5013877;28;20022;-64
2023/10/29 03:25:22;;;;;;;6.82;1.70;;;;;;;13.78;100.00;98926.44;5013638;28;20084;-66
2023/10/29 03:27:48;;;;;;;3.00;1.50;;;;;;;13.82;100.00;98914.78;5013613;28;20491;-65
2023/10/29 03:30:14;;;;;;;3.97;1.70;;;;;;;13.82;100.00;98914.78;5013927;28;20026;-64
2023/10/29 03:32:40;;;;;;;4.45;1.52;;;;;;;13.82;100.00;98935.16;5013814;28;20034;-66
2023/10/29 03:35:05;;;;;;;3.25;1.50;;;;;;;13.80;100.00;98919.28;5013095;28;20034;-65
2023/10/29 03:37:31;;;;;;;2.97;1.60;;;;;;;13.72;100.00;98919.53;5013128;28;20046;-65
2023/10/29 03:39:56;;;;;;;2.97;1.55;;;;;;;13.70;100.00;98917.84;5013531;28;20037;-64
2023/10/29 03:42:21;;;;;;;1.67;1.42;;;;;;;13.64;100.00;98926.88;5013426;28;20034;-66
2023/10/29 03:44:47;;;;;;;4.07;1.60;;;;;;;13.59;100.00;98923.53;5013426;28;20028;-65
2023/10/29 03:47:12;;;;;;;3.53;1.70;;;;;;;13.61;100.00;98932.28;5013258;28;20081;-64
2023/10/29 03:49:41;;;;;;;3.03;1.70;;;;;;;13.64;100.00;98918.06;5013545;28;20037;-65
2023/10/29 03:52:06;;;;;;;3.53;1.35;;;;;;;13.64;100.00;98916.25;5013163;28;20037;-65
2023/10/29 03:54:33;;;;;;;2.25;1.38;;;;;;;13.57;100.00;98908.53;5013261;28;20387;-66
2023/10/29 03:56:59;;;;;;;3.60;1.80;;;;;;;13.57;100.00;98901.44;5013218;28;20034;-66
2023/10/29 03:59:24;;;;;;;1.75;1.60;;;;;;;13.56;100.00;98906.81;5013180;28;20088;-65
2023/10/29 04:01:50;;;;;;;4.82;1.70;;;;;;;13.56;100.00;98912.13;5013137;28;20135;-65
2023/10/29 04:04:15;;;;;;;5.20;1.70;;;;;;;13.61;100.00;98928.75;5013182;28;20034;-65
2023/10/29 04:06:42;;;;;;;2.70;1.52;;;;;;;13.59;100.00;98909.38;5013108;28;20030;-66
2023/10/29 04:09:07;;;;;;;2.83;1.50;;;;;;;13.62;100.00;98912.81;5013064;28;20030;-65
2023/10/29 04:11:32;;;;;;;4.95;1.58;;;;;;;13.64;100.00;98908.31;5012020;28;20502;-65
2023/10/29 04:13:58;;;;;;;3.85;1.63;;;;;;;13.70;100.00;98937.31;5013080;28;20022;-65
2023/10/29 04:16:23;;;;;;;3.65;1.60;;;;;;;13.68;100.00;98909.94;5013021;28;20030;-66
2023/10/29 04:18:48;;;;;;;2.10;1.50;;;;;;;13.68;100.00;98933.84;5013015;28;20381;-66
2023/10/29 04:21:14;;;;;;;3.75;1.75;;;;;;;13.72;100.00;98935.47;5013374;28;20018;-65
2023/10/29 04:23:39;;;;;;;2.95;1.60;;;;;;;13.69;100.00;98919.63;5011784;28;20430;-66
2023/10/29 04:26:05;;;;;;;2.70;1.58;;;;;;;13.69;100.00;98934.69;5013033;28;20492;-65
2023/10/29 04:28:30;;;;;;;3.90;1.50;;;;;;;13.68;100.00;98930.31;5012856;28;20121;-65
2023/10/29 04:30:56;;;;;;;4.78;1.58;;;;;;;13.66;100.00;98930.38;5013178;28;20100;-65
2023/10/29 04:33:22;;;;;;;3.40;1.63;;;;;;;13.65;100.00;98931.25;5014120;28;20454;-65
2023/10/29 04:35:48;;;;;;;2.35;1.60;;;;;;;13.67;100.00;98942.72;5016382;28;20110;-64
2023/10/29 04:38:14;;;;;;;4.15;1.63;;;;;;;13.63;100.00;98926.94;5016586;28;20034;-65
2023/10/29 04:40:39;;;;;;;4.07;1.80;;;;;;;13.63;100.00;98918.97;5016642;28;20038;-65
2023/10/29 04:43:04;;;;;;;4.45;1.80;;;;;;;13.61;100.00;98936.72;5016586;28;20124;-64
2023/10/29 04:45:30;;;;;;;3.30;1.70;;;;;;;13.60;100.00;98935.84;5016467;28;20026;-65
2023/10/29 04:47:55;;;;;;;3.83;1.52;;;;;;;13.59;100.00;98938.56;5016745;28;20034;-65
2023/10/29 04:50:21;;;;;;;8.00;1.80;;;;;;;13.57;100.00;98928.00;5016381;28;20517;-66
2023/10/29 04:52:46;;;;;;;3.22;1.70;;;;;;;13.60;100.00;98930.56;5016551;28;20033;-66
2023/10/29 04:55:11;;;;;;;4.35;1.77;;;;;;;13.60;100.00;98938.50;5016452;28;20623;-66
2023/10/29 04:57:37;;;;;;;7.13;1.80;;;;;;;13.63;100.00;98948.19;5016291;28;20036;-65
2023/10/29 05:00:04;;;;;;;5.72;1.77;;;;;;;13.62;100.00;98918.13;5016273;28;20025;-64
2023/10/29 05:02:30;;;;;;;6.28;1.80;;;;;;;13.64;100.00;98940.16;5016225;28;20392;-65
2023/10/29 05:04:55;;;;;;;4.50;1.67;;;;;;;13.67;100.00;98933.88;5015950;28;20037;-66
2023/10/29 05:07:21;;;;;;;6.25;1.80;;;;;;;13.61;100.00;98932.28;5015892;28;20447;-65
2023/10/29 05:09:46;;;;;;;4.97;1.73;;;;;;;13.57;100.00;98951.88;5016348;28;20034;-64
2023/10/29 05:12:12;;;;;;;6.00;1.80;;;;;;;13.58;100.00;98948.31;5016293;28;20033;-63
2023/10/29 05:14:37;;;;;;;5.75;1.73;;;;;;;13.60;100.00;98949.13;5015977;28;20025;-65
2023/10/29 05:17:03;;;;;;;5.80;1.80;;;;;;;13.55;100.00;98952.84;5015843;28;20545;-66
2023/10/29 05:19:28;;;;;;;5.95;1.75;;;;;;;13.50;100.00;98972.44;5016152;28;20026;-64
2023/10/29 05:21:54;;;;;;;5.50;1.88;;;;;;;13.48;100.00;98984.88;5015801;28;20109;-64
2023/10/29 05:24:20;;;;;;;4.95;1.83;;;;;;;13.44;100.00;98992.97;5015845;28;20483;-66
2023/10/29 05:26:46;;;;;;;8.00;2.08;;;;;;;13.38;100.00;98982.56;5015796;28;20022;-66
2023/10/29 05:29:11;;;;;;;4.97;1.98;;;;;;;13.30;100.00;98984.56;5015747;28;20442;-66
2023/10/29 05:31:37;;;;;;;4.13;1.70;;;;;;;13.21;100.00;98980.38;5015776;28;20245;-66
2023/10/29 05:34:02;;;;;;;5.03;1.65;;;;;;;13.17;100.00;98992.00;5015716;28;20026;-65
2023/10/29 05:36:28;;;;;;;2.65;1.33;;;;;;;13.10;100.00;98974.53;5015422;28;20066;-65
2023/10/29 05:38:53;;;;;;;3.47;1.60;;;;;;;12.96;100.00;98981.09;5015379;28;20503;-67
2023/10/29 05:41:19;;;;;;;3.75;1.77;;;;;;;12.89;100.00;98992.81;5014216;28;20514;-67
2023/10/29 05:43:44;;;;;;;2.65;1.58;;;;;;;12.83;100.00;98987.66;5014424;28;20025;-67
2023/10/29 05:46:14;;;;;;;4.05;1.63;;;;;;;12.74;100.00;98986.16;5015305;28;20044;-67
2023/10/29 05:48:40;;;;;;;3.30;1.67;;;;;;;12.71;100.00;98994.16;5015345;28;20460;-67
2023/10/29 05:51:05;;;;;;;3.85;1.60;;;;;;;12.63;100.00;98998.81;5015242;28;20483;-67
2023/10/29 05:53:31;;;;;;;7.47;1.60;;;;;;;12.63;100.00;98993.50;5015304;28;20476;-66
2023/10/29 05:55:56;;;;;;;4.22;1.40;;;;;;;12.62;100.00;99004.16;5015182;28;20030;-67
2023/10/29 05:58:24;;;;;;;5.57;1.83;;;;;;;12.56;100.00;99028.19;5015200;28;20030;-66
2023/10/29 06:00:50;;;;;;;5.90;1.70;;;;;;;12.48;100.00;99031.91;5015488;28;20088;-66
2023/10/29 06:03:16;;;;;;;4.47;1.67;;;;;;;12.48;100.00;99038.97;5015064;28;20029;-66
2023/10/29 06:05:41;;;;;;;4.47;1.60;;;;;;;12.46;100.00;99046.97;5014688;28;20026;-67
2023/10/29 06:08:07;;;;;;;5.72;1.52;;;;;;;12.47;100.00;99053.13;5015053;28;20030;-66
2023/10/29 06:10:32;;;;;;;5.70;1.70;;;;;;;12.44;100.00;99053.22;5015051;28;20065;-66
2023/10/29 06:12:59;;;;;;;3.42;1.63;;;;;;;12.41;100.00;99059.44;5014907;28;20037;-67
2023/10/29 06:15:25;;;;;;;5.93;1.77;;;;;;;12.44;100.00;99055.84;5014922;28;20085;-65
2023/10/29 06:17:51;;;;;;;8.88;2.28;;;;;;;12.39;100.00;99060.41;5014981;28;20034;-69
2023/10/29 06:20:20;;;;;;;5.70;1.73;;;;;;;12.41;100.00;99074.47;5014698;28;20034;-67
2023/10/29 06:22:47;;;;;;;5.90;1.85;;;;;;;12.42;100.00;99074.44;5014999;28;20030;-67
2023/10/29 06:25:13;;;;;;;11.18;2.20;;;;;;;12.43;100.00;99091.22;5014571;28;20112;-65
2023/10/29 06:27:39;;;;;;;7.32;2.25;;;;;;;12.43;100.00;99086.78;5014629;28;20061;-67
2023/10/29 06:30:06;;;;;;;5.93;1.67;;;;;;;12.44;100.00;99106.19;5013480;28;20101;-66
2023/10/29 06:32:32;;;;;;;8.85;2.25;;;;;;;12.44;100.00;99092.94;5014518;28;20030;-66
2023/10/29 06:34:57;;;;;;;6.28;2.00;;;;;;;12.43;100.00;99096.50;5014304;28;20197;-67
2023/10/29 06:37:22;;;;;;;9.18;1.90;;;;;;;12.41;100.00;99098.31;5014093;28;20108;-66
2023/10/29 06:39:48;;;;;;;6.43;1.80;;;;;;;12.38;100.00;99093.09;5014874;28;20026;-65
2023/10/29 06:42:13;;;;;;;5.90;1.90;;;;;;;12.32;100.00;99099.41;5014357;28;20026;-66
2023/10/29 06:44:38;;;;;;;5.38;1.90;;;;;;;12.36;100.00;99114.31;5014424;28;20018;-65
2023/10/29 06:47:04;;;;;;;8.48;1.90;;;;;;;12.32;100.00;99109.13;5014333;28;20081;-66
2023/10/29 06:49:30;;;;;;;5.57;1.67;;;;;;;12.32;100.00;99117.94;5014174;28;20476;-65
2023/10/29 06:51:55;;;;;;;8.32;2.17;;;;;;;12.27;100.00;99117.19;5014416;28;20024;-65
2023/10/29 06:54:21;;;;;;;9.02;1.83;;;;;;;12.25;100.00;99126.97;5014281;28;20369;-65
2023/10/29 06:56:46;;;;;;;9.38;2.08;;;;;;;12.22;100.00;99134.97;5014027;28;20041;-66
2023/10/29 06:59:11;;;;;;;7.47;2.13;;;;;;;12.19;100.00;99130.59;5014062;28;20425;-66
2023/10/29 07:01:37;;;;;;;10.23;2.38;;;;;;;12.20;100.00;99135.00;5014056;28;20022;-66
2023/10/29 07:04:02;;;;;;;7.28;2.03;;;;;;;12.21;100.00;99141.19;5013955;28;20034;-65
2023/10/29 07:06:28;;;;;;;10.38;2.20;;;;;;;12.22;100.00;99141.13;5013584;28;20484;-66
2023/10/29 07:08:53;;;;;;;8.52;2.35;;;;;;;12.23;100.00;99140.22;5013826;28;20026;-66
2023/10/29 07:11:19;;;;;;;8.90;2.10;;;;;;;12.25;100.00;99146.38;5014150;28;20022;-65
2023/10/29 07:13:44;;;;;;;10.13;2.05;;;;;;;12.26;100.00;99164.00;5013887;28;20471;-66
2023/10/29 07:16:10;;;;;;;6.47;2.13;;;;;;;12.27;100.00;99170.16;5012580;28;20029;-66
2023/10/29 07:18:36;;;;;;;9.73;2.17;;;;;;;12.29;100.00;99165.72;5013726;28;20038;-66
2023/10/29 07:21:01;;;;;;;8.95;2.30;;;;;;;12.31;100.00;99174.47;5013593;28;20076;-65
2023/10/29 07:23:27;;;;;;;10.40;2.25;;;;;;;12.36;100.00;99166.41;5013660;28;20105;-65
2023/10/29 07:25:52;;;;;;;7.75;2.25;;;;;;;12.41;100.00;99164.53;5013614;28;20110;-66
2023/10/29 07:28:18;;;;;;;8.80;2.10;;;;;;;12.46;100.00;99171.47;5013884;28;20376;-65
2023/10/29 07:30:44;;;;;;;10.65;2.20;;;;;;;12.49;100.00;99181.97;5013563;28;20506;-65
2023/10/29 07:33:10;;;;;;;10.38;2.20;;;;;;;12.51;100.00;99181.97;5013466;28;20022;-65
2023/10/29 07:35:36;;;;;;;8.32;2.38;;;;;;;12.56;100.00;99205.69;5013235;28;20080;-65
2023/10/29 07:38:02;;;;;;;9.38;2.35;;;;;;;12.59;100.00;99219.75;5013178;28;20081;-66
2023/10/29 07:40:27;;;;;;;10.85;2.53;;;;;;;12.62;100.00;99201.09;5013400;28;20058;-65
2023/10/29 07:42:52;;;;;;;6.80;2.38;;;;;;;12.75;100.00;99201.69;5012180;28;20025;-65
2023/10/29 07:45:18;;;;;;;7.53;2.10;;;;;;;12.90;100.00;99203.09;5013301;28;20037;-65
2023/10/29 07:47:43;;;;;;;6.72;2.33;;;;;;;13.07;100.00;99202.69;5013286;28;20476;-65
2023/10/29 07:50:12;;;;;;;11.13;2.47;;;;;;;13.22;98.88;99211.13;5013377;28;20026;-65
2023/10/29 07:52:39;;;;;;;10.77;2.30;;;;;;;13.31;97.75;99230.34;5013113;28;20022;-65
2023/10/29 07:55:14;;;;;;;9.20;2.47;;;;;;;13.43;97.69;99220.28;5013197;28;20057;-65
2023/10/29 07:57:40;;;;;;;6.00;2.00;;;;;;;13.59;97.09;99222.53;5013270;28;20054;-65
2023/10/29 08:00:09;;;;;;;7.13;2.30;;;;;;;13.88;95.34;99232.34;5013201;28;20053;-66
2023/10/29 08:02:35;;;;;;;11.52;2.50;;;;;;;14.17;92.36;99223.50;5013156;28;20030;-65
2023/10/29 08:05:01;;;;;;;9.05;2.20;;;;;;;14.52;91.89;99214.50;5011859;28;20026;-66
2023/10/29 08:07:28;;;;;;;9.50;2.30;;;;;;;14.87;89.47;99212.50;5014361;28;20033;-66
2023/10/29 08:09:56;;;;;;;10.38;2.30;;;;;;;15.12;86.88;99225.84;5017273;28;20471;-66
2023/10/29 08:12:22;;;;;;;15.43;2.50;;;;;;;15.21;85.22;99229.06;5017172;28;20026;-65
2023/10/29 08:14:47;;;;;;;8.98;2.53;;;;;;;15.27;83.27;99247.47;5017162;28;20088;-65
2023/10/29 08:17:17;;;;;;;8.23;2.20;;;;;;;15.36;84.06;99245.41;5015825;28;20061;-66
2023/10/29 08:19:42;;;;;;;8.50;2.15;;;;;;;15.44;83.02;99252.22;5017220;28;20095;-65
2023/10/29 08:22:08;;;;;;;8.63;2.58;;;;;;;15.45;81.55;99245.97;5016987;28;20029;-66
2023/10/29 08:24:33;;;;;;;11.00;2.25;;;;;;;15.51;82.01;99258.22;5017024;28;20364;-66
2023/10/29 08:26:59;;;;;;;8.98;2.38;;;;;;;15.53;81.58;99273.19;5016799;28;20033;-66
2023/10/29 08:29:25;;;;;;;10.02;2.38;;;;;;;15.57;81.56;99263.31;5017035;28;20104;-65
2023/10/29 08:31:50;;;;;;;11.98;2.22;;;;;;;15.78;80.66;99256.38;5016804;28;20181;-65
2023/10/29 08:34:15;;;;;;;9.38;2.60;;;;;;;15.77;79.58;99252.00;5016853;28;20061;-66
2023/10/29 08:36:41;;;;;;;7.63;2.05;;;;;;;15.62;79.03;99253.38;5016350;28;20505;-66
2023/10/29 08:39:06;;;;;;;10.02;2.20;;;;;;;15.67;79.33;99256.78;5015267;28;20085;-66
2023/10/29 08:41:31;;;;;;;7.40;2.05;;;;;;;15.81;78.21;99295.38;5016713;28;20022;-67
2023/10/29 08:43:57;;;;;;;8.73;2.00;;;;;;;16.04;78.10;99274.09;5016642;28;20029;-65
2023/10/29 08:46:22;;;;;;;6.90;1.90;;;;;;;16.17;76.47;99267.38;5016474;28;20436;-65
2023/10/29 08:48:47;;;;;;;6.22;2.05;;;;;;;16.41;75.88;99267.38;5016691;28;20040;-66
2023/10/29 08:51:14;;;;;;;8.60;2.47;;;;;;;16.58;74.52;99312.06;5015117;28;20479;-67
2023/10/29 08:53:40;;;;;;;9.85;2.30;;;;;;;16.72;73.30;99286.63;5016681;28;20383;-66
2023/10/29 08:56:06;;;;;;;6.72;2.10;;;;;;;16.84;72.31;99295.09;5016315;28;20483;-66
2023/10/29 08:58:31;;;;;;;8.43;2.13;;;;;;;16.89;71.14;99301.97;5015132;28;20517;-66
2023/10/29 09:00:57;;;;;;;8.88;2.10;;;;;;;16.90;70.46;99316.16;5016590;28;20156;-67
2023/10/29 09:03:23;;;;;;;7.22;2.10;;;;;;;17.00;70.94;99313.09;5016521;28;20037;-66
2023/10/29 09:05:48;;;;;;;8.43;2.45;;;;;;;17.06;69.11;99313.78;5014595;28;20491;-66
2023/10/29 09:08:13;;;;;;;7.82;2.20;;;;;;;17.17;69.42;99316.84;5016458;28;20061;-67
2023/10/29 09:10:42;;;;;;;8.82;2.20;;;;;;;17.15;68.38;99332.06;5016040;28;20109;-66
2023/10/29 09:13:07;;;;;;;6.55;2.17;;;;;;;16.87;69.44;99341.16;5016033;28;20030;-66
2023/10/29 09:15:33;;;;;;;9.20;2.33;;;;;;;16.83;69.32;99344.00;5016068;28;20034;-65
2023/10/29 09:17:58;;;;;;;12.27;2.30;;;;;;;16.55;70.98;99346.84;5015746;28;20491;-66
2023/10/29 09:20:23;;;;;;;11.55;2.42;;;;;;;16.21;71.59;99358.75;5015947;28;20494;-66
2023/10/29 09:22:49;;;;;;;8.45;2.50;;;;;;;15.83;72.19;99352.09;5015777;28;20034;-66
2023/10/29 09:25:14;;;;;;;11.48;2.28;;;;;;;15.61;74.23;99336.84;5015734;28;20030;-65
2023/10/29 09:27:41;;;;;;;7.90;2.00;;;;;;;15.57;74.57;99347.66;5016059;28;20032;-67
2023/10/29 09:30:07;;;;;;;10.57;2.35;;;;;;;15.70;74.54;99344.53;5014495;28;20125;-67
2023/10/29 09:32:35;;;;;;;8.85;2.17;;;;;;;16.03;74.92;99345.16;5015654;28;20030;-66
2023/10/29 09:35:00;;;;;;;12.20;2.15;;;;;;;16.25;74.08;99363.03;5015519;28;20030;-68
2023/10/29 09:37:26;;;;;;;8.13;2.38;;;;;;;16.35;72.82;99343.13;5015323;28;20197;-66
2023/10/29 09:39:51;;;;;;;8.88;2.33;;;;;;;16.45;72.84;99352.53;5015648;28;20041;-65
2023/10/29 09:42:18;;;;;;;9.38;2.67;;;;;;;16.43;71.29;99340.16;5015502;28;20018;-67
2023/10/29 09:44:44;;;;;;;9.18;2.38;;;;;;;16.19;71.84;99363.28;5015721;28;20056;-66
2023/10/29 09:47:18;;;;;;;8.75;2.47;;;;;;;16.03;72.68;99365.63;5015319;28;20494;-66
2023/10/29 09:49:44;;;;;;;6.18;2.03;;;;;;;15.89;73.01;99366.09;5015418;28;20041;-66
2023/10/29 09:52:09;;;;;;;12.02;2.30;;;;;;;15.83;72.45;99352.97;5015415;28;20026;-65
2023/10/29 09:54:38;;;;;;;10.43;2.42;;;;;;;15.81;74.35;99354.84;5015533;28;20018;-66
2023/10/29 09:57:06;;;;;;;8.85;2.40;;;;;;;15.84;71.78;99365.38;5015447;28;20514;-66
2023/10/29 09:59:31;;;;;;;7.25;2.30;;;;;;;15.91;72.22;99364.25;5015485;28;20061;-65
2023/10/29 10:01:57;;;;;;;9.13;2.42;;;;;;;15.81;71.06;99351.31;5015188;28;20480;-65
2023/10/29 10:04:22;;;;;;;7.82;2.17;;;;;;;15.78;72.91;99323.84;5015417;28;20036;-66
2023/10/29 10:06:50;;;;;;;7.43;2.20;;;;;;;15.71;72.77;99322.31;5013307;28;20475;-65
2023/10/29 10:09:15;;;;;;;6.63;2.10;;;;;;;15.70;74.13;99328.56;5015185;28;20033;-65
2023/10/29 10:11:41;;;;;;;8.98;2.40;;;;;;;15.66;73.28;99324.25;5014999;28;20021;-65
2023/10/29 10:14:06;;;;;;;8.35;2.33;;;;;;;15.52;72.13;99331.81;5014943;28;20379;-65
2023/10/29 10:16:32;;;;;;;9.57;2.20;;;;;;;15.42;73.48;99328.59;5014689;28;20026;-66
2023/10/29 10:18:58;;;;;;;6.95;1.98;;;;;;;15.34;74.13;99333.31;5014848;28;20439;-66
2023/10/29 10:21:26;;;;;;;8.55;2.35;;;;;;;15.23;74.32;99322.13;5014611;28;20022;-67
2023/10/29 10:23:56;;;;;;;8.40;2.28;;;;;;;15.24;74.78;99311.44;5016334;28;20080;-66
2023/10/29 10:26:35;;;;;;;8.93;2.20;;;;;;;15.16;75.06;99304.63;5022054;28;20048;-67
2023/10/29 10:29:03;;;;;;;10.70;2.40;;;;;;;15.14;75.11;99309.13;5024337;28;20029;-67
2023/10/29 10:31:31;;;;;;;11.73;2.47;;;;;;;15.14;75.66;99304.69;5022119;28;20494;-66
2023/10/29 10:34:14;;;;;;;8.65;2.33;;;;;;;15.12;76.09;99313.66;5026313;28;20030;-66
2023/10/29 10:36:40;;;;;;;12.68;2.50;;;;;;;15.16;76.87;99316.16;5025446;28;20036;-65
2023/10/29 10:39:06;;;;;;;10.90;2.40;;;;;;;15.22;76.95;99321.28;5025351;28;20046;-66
2023/10/29 10:41:45;;;;;;;8.88;2.40;;;;;;;15.20;75.81;99327.56;5023079;28;20151;-66
2023/10/29 10:44:15;;;;;;;7.65;2.20;;;;;;;15.22;77.65;99336.38;5021957;28;20034;-65
2023/10/29 10:46:49;;;;;;;10.43;2.35;;;;;;;15.22;78.30;99345.22;5022152;28;20072;-66
2023/10/29 10:49:16;;;;;;;12.10;2.38;;;;;;;15.28;76.72;99349.47;5022155;28;20029;-64
2023/10/29 10:51:41;;;;;;;8.77;2.30;;;;;;;15.26;76.68;99356.66;5024227;28;20034;-66
2023/10/29 10:54:07;;;;;;;8.57;2.35;;;;;;;15.24;78.34;99361.13;5024503;28;20028;-67
2023/10/29 10:56:36;;;;;;;10.45;2.50;;;;;;;15.24;77.46;99348.69;5023123;28;20026;-67
2023/10/29 10:59:06;;;;;;;10.95;2.50;;;;;;;15.13;77.87;99353.50;5022433;28;20018;-66
2023/10/29 11:01:35;;;;;;;13.05;2.40;;;;;;;15.08;78.49;99352.78;5021673;28;20025;-66
2023/10/29 11:04:03;;;;;;;8.73;2.20;;;;;;;14.99;78.17;99350.41;5023970;28;20490;-65
2023/10/29 11:06:28;;;;;;;10.52;2.28;;;;;;;14.90;79.89;99346.25;5016139;28;20041;-66
2023/10/29 11:08:55;;;;;;;11.10;2.50;;;;;;;14.81;80.62;99345.63;5014094;28;20171;-66
2023/10/29 11:11:23;;;;;;;9.40;2.60;;;;;;;14.69;80.43;99353.09;5019088;28;20408;-65
2023/10/29 11:13:50;;;;;;;9.40;2.53;;;;;;;14.64;79.51;99347.00;5023521;28;20115;-66
2023/10/29 11:16:24;;;;;;;9.75;2.63;;;;;;;14.60;79.92;99358.66;5021848;28;20036;-65
2023/10/29 11:18:50;;;;;;;10.43;2.50;;;;;;;14.57;79.84;99339.28;5022762;28;20030;-66
2023/10/29 11:21:36;;;;;;;10.60;2.25;;;;;;;14.53;81.33;99327.88;5024042;28;20027;-66